Time;durP1;ratioP1;P1;durP2;ratioP2;P2;SDS_P1;SDS_P2;PMS_P1;PMS_P2;Temp;Humidity;BMP_temperature;BMP_pressure;BME280_temperature;BME280_humidity;BME280_pressure;Samples;Min_cycle;Max_cycle;Signal;HPM_P1;HPM_P2
2021/09/12 00:00:22;;;;;;;12.43;10.90;;;18.50;99.90;;;;;;5040425;28;20449;-60
2021/09/12 00:02:49;;;;;;;11.27;10.33;;;18.50;99.90;;;;;;5043940;28;20465;-61
2021/09/12 00:05:16;;;;;;;14.37;11.47;;;18.50;99.90;;;;;;5045044;28;20957;-61
2021/09/12 00:07:42;;;;;;;12.67;11.37;;;18.50;99.90;;;;;;5060991;28;20463;-61
2021/09/12 00:10:10;;;;;;;14.57;10.77;;;18.50;99.90;;;;;;5059546;28;20441;-61
2021/09/12 00:12:42;;;;;;;11.40;10.20;;;18.50;99.90;;;;;;5056800;28;20480;-61
2021/09/12 00:15:12;;;;;;;15.03;13.27;;;18.60;99.90;;;;;;5048420;28;20973;-61
2021/09/12 00:17:39;;;;;;;13.70;12.27;;;18.50;99.90;;;;;;5058339;28;20440;-61
2021/09/12 00:20:08;;;;;;;12.47;11.30;;;18.50;99.90;;;;;;5053401;28;20452;-61
2021/09/12 00:22:34;;;;;;;13.23;11.93;;;18.50;99.90;;;;;;5039458;28;20473;-62
2021/09/12 00:25:01;;;;;;;14.07;11.77;;;18.50;99.90;;;;;;5048455;28;20432;-61
2021/09/12 00:27:29;;;;;;;14.20;12.50;;;18.50;99.90;;;;;;5057823;28;20456;-61
2021/09/12 00:29:56;;;;;;;11.00;9.90;;;18.50;99.90;;;;;;5059157;28;20478;-61
2021/09/12 00:32:24;;;;;;;13.37;12.10;;;18.50;99.90;;;;;;5061994;28;20529;-62
2021/09/12 00:34:52;;;;;;;17.23;15.60;;;18.50;99.90;;;;;;5050022;28;20484;-61
2021/09/12 00:37:19;;;;;;;13.40;12.20;;;18.50;99.90;;;;;;5042595;28;20453;-61
2021/09/12 00:39:45;;;;;;;15.43;13.93;;;18.50;99.90;;;;;;5042965;28;20449;-62
2021/09/12 00:42:12;;;;;;;11.70;10.53;;;18.50;99.90;;;;;;5040991;28;20437;-60
2021/09/12 00:44:39;;;;;;;13.20;11.67;;;18.50;99.90;;;;;;5041844;28;20464;-62
2021/09/12 00:47:09;;;;;;;13.60;12.40;;;18.40;99.90;;;;;;5040796;28;20449;-62
2021/09/12 00:49:37;;;;;;;13.33;12.23;;;18.40;99.90;;;;;;5049122;28;20808;-62
2021/09/12 00:52:07;;;;;;;17.37;13.90;;;18.40;99.90;;;;;;5039189;28;20445;-62
2021/09/12 00:54:35;;;;;;;22.10;15.03;;;18.40;99.90;;;;;;5040514;28;20473;-62
2021/09/12 00:57:05;;;;;;;15.70;12.80;;;18.40;99.90;;;;;;5039678;28;20448;-62
2021/09/12 00:59:33;;;;;;;15.00;12.20;;;18.30;99.90;;;;;;5041700;28;20452;-62
2021/09/12 01:02:03;;;;;;;14.77;13.27;;;18.30;99.90;;;;;;5050294;28;20513;-62
2021/09/12 01:04:30;;;;;;;13.47;12.07;;;18.30;99.90;;;;;;5040157;28;20935;-62
2021/09/12 01:06:58;;;;;;;14.30;12.80;;;18.20;99.90;;;;;;5040329;28;20441;-62
2021/09/12 01:09:24;;;;;;;13.60;12.20;;;18.20;99.90;;;;;;5040348;28;20449;-62
2021/09/12 01:11:51;;;;;;;13.30;12.00;;;18.20;99.90;;;;;;5045088;28;20467;-61
2021/09/12 01:14:23;;;;;;;13.93;12.43;;;18.10;99.90;;;;;;5048435;28;20492;-63
2021/09/12 01:16:49;;;;;;;15.13;13.50;;;18.10;99.90;;;;;;5041050;28;20453;-61
2021/09/12 01:19:16;;;;;;;17.73;15.90;;;18.10;99.90;;;;;;5042111;28;20445;-61
2021/09/12 01:21:43;;;;;;;17.33;15.63;;;18.00;99.90;;;;;;5040761;28;20441;-61
2021/09/12 01:24:11;;;;;;;17.50;15.57;;;18.00;99.90;;;;;;5040812;28;20472;-60
2021/09/12 01:26:38;;;;;;;22.10;16.37;;;18.00;99.90;;;;;;5041319;28;20446;-60
2021/09/12 01:29:05;;;;;;;18.07;16.37;;;17.90;99.90;;;;;;5039412;28;20819;-61
2021/09/12 01:31:33;;;;;;;23.97;17.40;;;17.90;99.90;;;;;;5039291;28;20453;-61
2021/09/12 01:34:01;;;;;;;21.73;17.33;;;17.90;99.90;;;;;;5038450;28;20507;-61
2021/09/12 01:36:29;;;;;;;18.80;16.80;;;17.80;99.90;;;;;;5042999;28;20449;-63
2021/09/12 01:38:55;;;;;;;22.33;18.13;;;17.80;99.90;;;;;;5045870;28;20442;-63
2021/09/12 01:41:23;;;;;;;20.30;16.77;;;17.80;99.90;;;;;;5042515;28;20452;-61
2021/09/12 01:43:52;;;;;;;18.80;16.80;;;17.80;99.90;;;;;;5040535;28;20462;-61
2021/09/12 01:46:19;;;;;;;18.80;17.00;;;17.80;99.90;;;;;;5040367;28;20452;-59
2021/09/12 01:48:46;;;;;;;24.23;18.60;;;17.90;99.90;;;;;;5040583;28;20815;-63
2021/09/12 01:51:13;;;;;;;18.50;16.70;;;17.90;99.90;;;;;;5040331;28;20966;-60
2021/09/12 01:53:41;;;;;;;19.53;17.37;;;17.90;99.90;;;;;;5039698;28;20469;-61
2021/09/12 01:56:08;;;;;;;21.90;17.20;;;17.90;99.90;;;;;;5040194;28;20460;-62
2021/09/12 01:58:36;;;;;;;18.17;15.90;;;17.90;99.90;;;;;;5040542;28;20441;-63
2021/09/12 02:01:04;;;;;;;20.00;16.20;;;17.90;99.90;;;;;;5041698;28;20448;-63
2021/09/12 02:03:31;;;;;;;20.90;16.80;;;17.90;99.90;;;;;;5045650;28;20472;-63
2021/09/12 02:05:57;;;;;;;43.87;17.70;;;17.90;99.90;;;;;;5045316;28;20848;-62
2021/09/12 02:08:24;;;;;;;24.40;17.70;;;17.80;99.90;;;;;;5043432;28;20932;-62
2021/09/12 02:10:51;;;;;;;21.67;19.33;;;17.70;99.90;;;;;;5042083;28;20830;-61
2021/09/12 02:13:17;;;;;;;25.37;19.07;;;17.60;99.90;;;;;;5042818;28;20513;-62
2021/09/12 02:15:45;;;;;;;23.60;17.70;;;17.60;99.90;;;;;;5041147;28;20476;-61
2021/09/12 02:18:13;;;;;;;22.90;19.57;;;17.50;99.90;;;;;;5040572;28;20453;-61
2021/09/12 02:20:40;;;;;;;24.87;18.87;;;17.40;99.90;;;;;;5044627;28;20445;-63
2021/09/12 02:23:07;;;;;;;19.77;17.87;;;17.40;99.90;;;;;;5047248;28;20852;-61
2021/09/12 02:25:35;;;;;;;21.83;19.53;;;17.40;99.90;;;;;;5046580;28;20442;-63
2021/09/12 02:28:02;;;;;;;30.70;20.20;;;17.30;99.90;;;;;;5046229;28;20471;-62
2021/09/12 02:30:29;;;;;;;21.10;18.80;;;17.30;99.90;;;;;;5043798;28;20453;-61
2021/09/12 02:32:57;;;;;;;32.70;19.63;;;17.30;99.90;;;;;;5039727;28;20469;-62
2021/09/12 02:35:24;;;;;;;26.33;20.77;;;17.30;99.90;;;;;;5039958;28;20490;-61
2021/09/12 02:37:51;;;;;;;27.47;21.87;;;17.40;99.90;;;;;;5039641;28;20838;-63
2021/09/12 02:40:18;;;;;;;25.87;20.80;;;17.40;99.90;;;;;;5039672;28;20993;-61
2021/09/12 02:42:45;;;;;;;26.10;20.97;;;17.40;99.90;;;;;;5039321;28;21013;-62
2021/09/12 02:45:12;;;;;;;29.17;20.97;;;17.40;99.90;;;;;;5040810;28;20529;-60
2021/09/12 02:47:39;;;;;;;28.80;21.80;;;17.40;99.90;;;;;;5047606;28;20444;-63
2021/09/12 02:50:08;;;;;;;21.67;19.03;;;17.40;99.90;;;;;;5047043;28;20448;-61
2021/09/12 02:52:35;;;;;;;27.23;20.40;;;17.40;99.90;;;;;;5042274;28;20476;-63
2021/09/12 02:55:03;;;;;;;25.47;20.40;;;17.40;99.90;;;;;;5043313;28;20557;-62
2021/09/12 02:57:30;;;;;;;27.50;20.90;;;17.40;99.90;;;;;;5039936;28;20445;-61
2021/09/12 03:00:00;;;;;;;22.93;20.40;;;17.40;99.90;;;;;;5041220;28;20445;-62
2021/09/12 03:02:27;;;;;;;27.77;20.83;;;17.40;99.90;;;;;;5052585;28;20889;-62
2021/09/12 03:04:54;;;;;;;21.97;19.70;;;17.50;99.90;;;;;;5061244;28;20448;-60
2021/09/12 03:07:22;;;;;;;25.30;21.83;;;17.50;99.90;;;;;;5061328;28;20451;-61
2021/09/12 03:09:49;;;;;;;25.17;19.20;;;17.50;99.90;;;;;;5060082;28;20802;-61
2021/09/12 03:12:16;;;;;;;21.97;18.37;;;17.60;99.90;;;;;;5066454;28;20435;-63
2021/09/12 03:14:42;;;;;;;20.77;18.57;;;17.60;99.90;;;;;;5062847;28;20484;-62
2021/09/12 03:17:09;;;;;;;21.53;19.10;;;17.50;99.90;;;;;;5065511;28;20791;-61
2021/09/12 03:19:36;;;;;;;25.73;20.00;;;17.50;99.90;;;;;;5065009;28;20440;-63
2021/09/12 03:22:03;;;;;;;23.67;19.70;;;17.50;99.90;;;;;;5063461;28;20459;-63
2021/09/12 03:24:31;;;;;;;22.57;18.90;;;17.60;99.90;;;;;;5060641;28;20447;-60
2021/09/12 03:26:57;;;;;;;21.93;19.53;;;17.50;99.90;;;;;;5061784;28;20440;-62
2021/09/12 03:29:24;;;;;;;25.27;18.40;;;17.50;99.90;;;;;;5040949;28;20956;-61
2021/09/12 03:31:51;;;;;;;18.73;16.10;;;17.40;99.90;;;;;;5040368;28;20445;-62
2021/09/12 03:34:18;;;;;;;25.17;19.33;;;17.40;99.90;;;;;;5049992;28;20464;-62
2021/09/12 03:36:44;;;;;;;20.40;18.20;;;17.50;99.90;;;;;;5062141;28;20452;-63
2021/09/12 03:39:11;;;;;;;19.03;16.97;;;17.50;99.90;;;;;;5062067;28;20451;-63
2021/09/12 03:41:39;;;;;;;21.70;15.63;;;17.50;99.90;;;;;;5054413;28;20456;-61
2021/09/12 03:44:06;;;;;;;23.83;16.17;;;17.40;99.90;;;;;;5040676;28;20473;-62
2021/09/12 03:46:33;;;;;;;15.70;14.30;;;17.30;99.90;;;;;;5040181;28;20449;-62
2021/09/12 03:48:59;;;;;;;24.53;16.07;;;17.30;99.90;;;;;;5039853;28;20445;-62
2021/09/12 03:51:26;;;;;;;16.00;14.60;;;17.30;99.90;;;;;;5039152;28;20445;-61
2021/09/12 03:53:53;;;;;;;22.30;14.00;;;17.30;99.90;;;;;;5054748;28;20472;-61
2021/09/12 03:56:19;;;;;;;16.73;12.80;;;17.20;99.90;;;;;;5062404;28;20472;-63
2021/09/12 03:58:47;;;;;;;15.37;13.73;;;17.20;99.90;;;;;;5062469;28;20444;-63
2021/09/12 04:01:14;;;;;;;15.63;13.33;;;17.20;99.90;;;;;;5052806;28;20441;-63
2021/09/12 04:03:41;;;;;;;13.17;11.80;;;17.20;99.90;;;;;;5042608;28;20461;-61
2021/09/12 04:06:07;;;;;;;13.13;11.83;;;17.20;99.90;;;;;;5045555;28;20445;-62
2021/09/12 04:08:34;;;;;;;17.50;14.37;;;17.20;99.90;;;;;;5043330;28;20456;-62
2021/09/12 04:11:01;;;;;;;14.73;13.43;;;17.10;99.90;;;;;;5042579;28;20444;-63
2021/09/12 04:13:28;;;;;;;13.47;12.10;;;17.00;99.90;;;;;;5057187;28;20876;-59
2021/09/12 04:15:56;;;;;;;21.57;10.83;;;17.00;99.90;;;;;;5055215;28;20483;-57
2021/09/12 04:18:22;;;;;;;11.00;10.00;;;16.90;99.90;;;;;;5054699;28;20448;-54
2021/09/12 04:20:49;;;;;;;11.97;10.67;;;16.80;99.90;;;;;;5054896;28;20451;-57
2021/09/12 04:23:16;;;;;;;12.50;11.10;;;16.70;99.90;;;;;;5054170;28;20475;-61
2021/09/12 04:25:42;;;;;;;13.07;10.10;;;16.60;99.90;;;;;;5051299;28;20520;-55
2021/09/12 04:28:09;;;;;;;10.23;9.23;;;16.60;99.90;;;;;;5034930;28;20448;-53
2021/09/12 04:30:36;;;;;;;9.50;8.50;;;16.40;99.90;;;;;;5034889;28;20750;-53
2021/09/12 04:33:04;;;;;;;12.33;10.27;;;16.40;99.90;;;;;;5033882;28;20468;-59
2021/09/12 04:35:30;;;;;;;11.30;10.20;;;16.30;99.90;;;;;;5032511;28;21220;-57
2021/09/12 04:37:57;;;;;;;14.80;10.37;;;16.20;99.90;;;;;;5032820;28;20536;-59
2021/09/12 04:40:24;;;;;;;10.53;9.23;;;16.10;99.90;;;;;;5041422;28;20448;-58
2021/09/12 04:42:50;;;;;;;7.73;7.13;;;16.10;99.90;;;;;;5052767;28;20491;-63
2021/09/12 04:45:17;;;;;;;9.93;8.90;;;16.00;99.90;;;;;;5052607;28;20448;-60
2021/09/12 04:47:44;;;;;;;13.00;9.77;;;16.00;99.90;;;;;;5046395;28;20452;-61
2021/09/12 04:50:12;;;;;;;10.23;7.83;;;16.00;99.90;;;;;;5034513;28;20448;-57
2021/09/12 04:52:39;;;;;;;9.20;8.40;;;16.00;99.90;;;;;;5038260;28;20460;-59
2021/09/12 04:55:07;;;;;;;9.53;7.50;;;16.00;99.90;;;;;;5042063;28;20480;-58
2021/09/12 04:57:33;;;;;;;17.40;9.10;;;16.00;99.90;;;;;;5034181;28;20444;-57
2021/09/12 05:00:00;;;;;;;13.30;9.53;;;16.10;99.90;;;;;;5040378;28;20445;-54
2021/09/12 05:02:27;;;;;;;9.37;8.53;;;16.10;99.90;;;;;;5050322;28;20464;-61
2021/09/12 05:04:54;;;;;;;10.77;7.70;;;16.20;99.90;;;;;;5049174;28;20434;-53
2021/09/12 05:07:22;;;;;;;8.90;8.10;;;16.20;99.90;;;;;;5050646;28;20444;-55
2021/09/12 05:09:48;;;;;;;8.60;7.87;;;16.20;99.90;;;;;;5047520;28;20444;-58
2021/09/12 05:12:15;;;;;;;8.47;7.37;;;16.30;99.90;;;;;;5041859;28;20445;-57
2021/09/12 05:14:42;;;;;;;8.50;7.20;;;16.30;99.90;;;;;;5039885;28;20448;-61
2021/09/12 05:17:09;;;;;;;12.90;8.20;;;16.40;99.90;;;;;;5042036;28;20960;-57
2021/09/12 05:19:35;;;;;;;12.33;8.47;;;16.40;99.90;;;;;;5049998;28;20441;-54
2021/09/12 05:22:02;;;;;;;7.13;6.57;;;16.40;99.90;;;;;;5047311;28;20447;-63
2021/09/12 05:24:31;;;;;;;8.37;7.50;;;16.40;99.90;;;;;;5045809;28;20452;-55
2021/09/12 05:26:57;;;;;;;7.40;6.40;;;16.50;99.90;;;;;;5033483;28;20480;-57
2021/09/12 05:29:24;;;;;;;8.20;7.50;;;16.60;99.90;;;;;;5046725;28;20539;-59
2021/09/12 05:31:51;;;;;;;8.23;7.47;;;16.60;99.90;;;;;;5033207;28;20488;-58
2021/09/12 05:34:18;;;;;;;8.47;7.70;;;16.60;99.90;;;;;;5035886;28;20560;-55
2021/09/12 05:36:45;;;;;;;9.97;8.20;;;16.70;99.90;;;;;;5047689;28;21056;-59
2021/09/12 05:39:12;;;;;;;7.67;6.70;;;16.70;99.90;;;;;;5040304;28;20445;-58
2021/09/12 05:41:40;;;;;;;11.63;9.33;;;16.70;99.90;;;;;;5041292;28;20456;-55
2021/09/12 05:44:07;;;;;;;9.50;8.60;;;16.70;99.90;;;;;;5037419;28;20464;-61
2021/09/12 05:46:35;;;;;;;9.37;8.40;;;16.60;99.90;;;;;;5037346;28;20440;-58
2021/09/12 05:49:02;;;;;;;13.27;7.40;;;16.60;99.90;;;;;;5034955;28;20472;-62
2021/09/12 05:51:29;;;;;;;13.23;8.30;;;16.70;99.90;;;;;;5042905;28;20453;-59
2021/09/12 05:53:56;;;;;;;8.20;7.40;;;16.70;99.90;;;;;;5045768;28;20464;-56
2021/09/12 05:56:22;;;;;;;7.50;6.80;;;16.80;99.90;;;;;;5038893;28;20480;-58
2021/09/12 05:58:50;;;;;;;8.60;7.57;;;16.90;99.90;;;;;;5042892;28;20448;-61
2021/09/12 06:01:19;;;;;;;8.20;7.50;;;17.00;99.90;;;;;;5031217;28;20441;-58
2021/09/12 06:03:46;;;;;;;9.50;8.80;;;17.10;99.90;;;;;;5030803;28;20913;-61
2021/09/12 06:06:13;;;;;;;8.13;7.43;;;17.10;99.90;;;;;;5031362;28;20436;-60
2021/09/12 06:08:39;;;;;;;8.77;7.70;;;17.20;99.90;;;;;;5031688;28;20460;-57
2021/09/12 06:11:09;;;;;;;8.87;7.97;;;17.30;99.90;;;;;;5031647;28;20935;-58
2021/09/12 06:13:36;;;;;;;9.67;8.77;;;17.30;99.90;;;;;;5044592;28;20492;-61
2021/09/12 06:16:07;;;;;;;9.67;8.60;;;17.20;99.90;;;;;;5044300;28;20483;-57
2021/09/12 06:18:35;;;;;;;8.97;8.17;;;17.20;99.90;;;;;;5048350;28;21650;-63
2021/09/12 06:21:03;;;;;;;11.40;9.07;;;17.10;99.90;;;;;;5040820;28;20495;-55
2021/09/12 06:23:30;;;;;;;10.70;9.67;;;17.10;99.90;;;;;;5039291;28;20885;-58
2021/09/12 06:25:57;;;;;;;10.83;9.80;;;17.10;99.90;;;;;;5038330;28;20430;-57
2021/09/12 06:28:24;;;;;;;11.47;10.40;;;17.10;99.90;;;;;;5041386;28;20439;-54
2021/09/12 06:30:51;;;;;;;9.67;8.87;;;17.10;99.90;;;;;;5042066;28;20511;-57
2021/09/12 06:33:19;;;;;;;10.70;9.50;;;17.00;99.90;;;;;;5036495;28;20471;-58
2021/09/12 06:35:46;;;;;;;11.20;10.23;;;17.10;99.90;;;;;;5048675;28;20490;-56
2021/09/12 06:38:13;;;;;;;11.03;9.70;;;17.10;99.90;;;;;;5047626;28;20440;-53
2021/09/12 06:40:39;;;;;;;14.13;9.50;;;17.10;99.90;;;;;;5041533;28;20449;-56
2021/09/12 06:43:06;;;;;;;10.37;9.30;;;17.30;99.90;;;;;;5043863;28;20831;-56
2021/09/12 06:45:33;;;;;;;9.90;8.97;;;17.40;99.90;;;;;;5032353;28;20441;-53
2021/09/12 06:48:00;;;;;;;9.30;8.50;;;17.50;99.90;;;;;;5032337;28;20445;-56
2021/09/12 06:50:29;;;;;;;10.00;9.20;;;17.70;99.90;;;;;;5032143;28;20884;-54
2021/09/12 06:52:55;;;;;;;13.33;10.43;;;17.70;99.90;;;;;;5031838;28;20467;-53
2021/09/12 06:55:22;;;;;;;11.73;10.50;;;17.90;99.90;;;;;;5032236;28;20847;-57
2021/09/12 06:57:49;;;;;;;11.20;10.07;;;17.90;99.90;;;;;;5043241;28;20448;-54
2021/09/12 07:00:16;;;;;;;10.70;9.73;;;17.90;99.90;;;;;;5052126;28;20450;-55
2021/09/12 07:02:43;;;;;;;12.10;10.90;;;18.00;99.90;;;;;;5051740;28;20471;-55
2021/09/12 07:05:11;;;;;;;13.30;11.27;;;18.10;99.90;;;;;;5052213;28;20448;-56
2021/09/12 07:07:39;;;;;;;13.53;12.07;;;18.10;99.90;;;;;;5052025;28;20444;-63
2021/09/12 07:10:07;;;;;;;13.07;11.83;;;18.10;99.90;;;;;;5051879;28;20949;-60
2021/09/12 07:12:33;;;;;;;12.23;11.10;;;18.10;99.90;;;;;;5034019;28;20477;-57
2021/09/12 07:15:00;;;;;;;15.37;11.70;;;18.20;99.90;;;;;;5031879;28;20445;-59
2021/09/12 07:17:27;;;;;;;11.80;10.80;;;18.30;99.90;;;;;;5031852;28;20485;-64
2021/09/12 07:19:53;;;;;;;14.13;12.73;;;18.50;99.90;;;;;;5031786;28;20445;-61
2021/09/12 07:22:20;;;;;;;12.50;11.50;;;18.60;99.90;;;;;;5031525;28;20531;-55
2021/09/12 07:24:48;;;;;;;13.50;12.10;;;18.60;99.90;;;;;;5034266;28;20449;-59
2021/09/12 07:27:15;;;;;;;12.10;11.30;;;18.90;99.90;;;;;;5051351;28;20437;-59
2021/09/12 07:29:42;;;;;;;12.63;11.63;;;18.90;99.90;;;;;;5033194;28;20445;-59
2021/09/12 07:32:08;;;;;;;12.63;11.40;;;19.00;99.90;;;;;;5031219;28;20445;-61
2021/09/12 07:34:35;;;;;;;11.90;10.80;;;19.00;99.90;;;;;;5031459;28;20445;-61
2021/09/12 07:37:02;;;;;;;12.87;12.07;;;19.00;99.90;;;;;;5031400;28;20508;-61
2021/09/12 07:39:29;;;;;;;11.77;10.77;;;19.00;99.90;;;;;;5038780;28;20451;-57
2021/09/12 07:41:57;;;;;;;13.03;11.87;;;18.80;99.90;;;;;;5050645;28;20813;-65
2021/09/12 07:44:24;;;;;;;11.43;10.50;;;18.80;99.90;;;;;;5051528;28;20494;-61
2021/09/12 07:46:50;;;;;;;12.17;11.33;;;18.90;99.90;;;;;;5051379;28;20440;-58
2021/09/12 07:49:17;;;;;;;13.93;13.13;;;19.00;99.90;;;;;;5051454;28;20448;-56
2021/09/12 07:51:44;;;;;;;14.60;13.50;;;19.10;99.90;;;;;;5051109;28;20455;-59
2021/09/12 07:54:10;;;;;;;14.40;13.20;;;19.20;99.90;;;;;;5037458;28;20465;-62
2021/09/12 07:56:37;;;;;;;11.97;11.10;;;19.30;99.90;;;;;;5031368;28;20476;-58
2021/09/12 07:59:05;;;;;;;12.93;12.03;;;19.40;99.90;;;;;;5031425;28;20449;-60
2021/09/12 08:01:32;;;;;;;13.10;12.30;;;19.60;99.90;;;;;;5031422;28;20445;-59
2021/09/12 08:03:58;;;;;;;12.83;12.20;;;19.80;99.90;;;;;;5031297;28;20858;-59
2021/09/12 08:06:25;;;;;;;13.23;12.43;;;20.00;99.90;;;;;;5031351;28;20817;-63
2021/09/12 08:08:52;;;;;;;12.73;12.07;;;20.10;99.90;;;;;;5050121;28;20444;-62
2021/09/12 08:11:18;;;;;;;13.20;12.40;;;20.20;99.90;;;;;;5050783;28;20452;-60
2021/09/12 08:13:45;;;;;;;14.00;13.00;;;20.20;99.90;;;;;;5050518;28;20841;-65
2021/09/12 08:16:14;;;;;;;14.97;13.47;;;20.30;99.90;;;;;;5051012;28;20480;-60
2021/09/12 08:18:41;;;;;;;15.70;14.67;;;20.40;99.90;;;;;;5051106;28;20447;-62
2021/09/12 08:21:08;;;;;;;13.97;13.27;;;20.50;99.90;;;;;;5050027;28;20522;-63
2021/09/12 08:23:34;;;;;;;13.77;13.07;;;20.50;99.90;;;;;;5050842;28;20965;-59
2021/09/12 08:26:01;;;;;;;14.43;13.33;;;20.40;99.90;;;;;;5050893;28;20538;-62
2021/09/12 08:28:28;;;;;;;14.40;13.60;;;20.50;99.90;;;;;;5050860;28;20440;-61
2021/09/12 08:30:55;;;;;;;13.50;12.63;;;20.50;99.90;;;;;;5050893;28;20455;-60
2021/09/12 08:33:23;;;;;;;13.50;12.90;;;20.40;99.90;;;;;;5050853;28;20476;-61
2021/09/12 08:35:50;;;;;;;14.17;13.43;;;20.40;99.90;;;;;;5041009;28;20674;-63
2021/09/12 08:38:17;;;;;;;14.57;13.80;;;20.50;99.90;;;;;;5031075;28;20449;-62
2021/09/12 08:40:44;;;;;;;14.60;13.77;;;20.60;99.90;;;;;;5031036;28;20961;-61
2021/09/12 08:43:12;;;;;;;13.47;12.70;;;20.50;99.90;;;;;;5030727;28;20945;-63
2021/09/12 08:45:39;;;;;;;16.70;15.80;;;20.60;99.90;;;;;;5031110;28;20452;-62
2021/09/12 08:48:06;;;;;;;16.87;15.90;;;20.50;99.90;;;;;;5030816;28;20452;-62
2021/09/12 08:50:34;;;;;;;17.77;16.90;;;20.50;99.90;;;;;;5030293;28;20452;-64
2021/09/12 08:53:01;;;;;;;17.27;16.27;;;20.60;99.90;;;;;;5033679;28;20464;-63
2021/09/12 08:55:28;;;;;;;15.50;14.30;;;20.60;99.90;;;;;;5034649;28;20444;-62
2021/09/12 08:57:55;;;;;;;16.10;15.00;;;20.70;99.90;;;;;;5034202;28;20487;-59
2021/09/12 09:00:26;;;;;;;15.73;14.70;;;20.90;99.90;;;;;;5034405;28;20448;-62
2021/09/12 09:02:58;;;;;;;15.13;14.33;;;21.10;99.90;;;;;;5033803;28;21119;-63
2021/09/12 09:05:30;;;;;;;15.97;15.00;;;21.10;99.90;;;;;;5034004;28;20496;-63
2021/09/12 09:08:06;;;;;;;15.20;14.47;;;21.20;99.90;;;;;;5034272;28;20915;-63
2021/09/12 09:10:38;;;;;;;15.43;14.63;;;21.30;99.90;;;;;;5034251;28;20459;-63
2021/09/12 09:13:24;;;;;;;17.17;15.97;;;21.50;99.90;;;;;;5033720;28;20484;-64
2021/09/12 09:15:50;;;;;;;15.10;14.17;;;21.70;99.90;;;;;;5034137;28;20461;-65
2021/09/12 09:18:17;;;;;;;13.80;13.00;;;21.90;99.90;;;;;;5033826;28;20528;-62
2021/09/12 09:20:44;;;;;;;13.40;12.80;;;21.80;99.90;;;;;;5034065;28;20449;-64
2021/09/12 09:23:12;;;;;;;14.23;13.60;;;21.80;99.90;;;;;;5033939;28;20465;-61
2021/09/12 09:25:38;;;;;;;13.00;12.50;;;21.80;99.90;;;;;;5034088;28;20449;-62
2021/09/12 09:28:07;;;;;;;14.00;13.47;;;21.60;99.90;;;;;;5034110;28;20945;-62
2021/09/12 09:30:37;;;;;;;13.97;13.27;;;21.60;99.90;;;;;;5034018;28;20445;-61
2021/09/12 09:33:22;;;;;;;13.60;13.00;;;21.50;99.90;;;;;;5033650;28;20461;-62
2021/09/12 09:35:55;;;;;;;13.87;13.37;;;21.80;99.90;;;;;;5033823;28;20639;-63
2021/09/12 09:38:25;;;;;;;14.37;13.50;;;21.80;99.90;;;;;;5033319;28;20849;-62
2021/09/12 09:41:05;;;;;;;14.40;13.70;;;21.80;99.90;;;;;;5033825;28;20541;-63
2021/09/12 09:43:46;;;;;;;14.20;13.60;;;21.90;99.90;;;;;;5033878;28;20468;-63
2021/09/12 09:46:30;;;;;;;15.90;15.30;;;22.10;99.90;;;;;;5034272;28;20865;-58
2021/09/12 09:48:58;;;;;;;15.70;14.87;;;22.20;99.90;;;;;;5033458;28;20556;-62
2021/09/12 09:51:26;;;;;;;15.50;14.80;;;22.10;99.90;;;;;;5033439;28;20449;-62
2021/09/12 09:53:55;;;;;;;14.87;14.33;;;21.90;99.90;;;;;;5033456;28;20472;-58
2021/09/12 09:56:23;;;;;;;15.30;14.40;;;22.00;99.90;;;;;;5033473;28;20850;-58
2021/09/12 09:58:52;;;;;;;15.10;14.47;;;21.90;99.90;;;;;;5034281;28;20866;-60
2021/09/12 10:01:19;;;;;;;14.43;13.83;;;22.00;99.90;;;;;;5033141;28;20449;-58
2021/09/12 10:03:47;;;;;;;15.33;14.73;;;22.00;99.90;;;;;;5033103;28;20465;-60
2021/09/12 10:06:15;;;;;;;15.03;14.53;;;22.00;99.90;;;;;;5033447;28;20492;-62
2021/09/12 10:08:43;;;;;;;13.87;13.37;;;22.10;99.90;;;;;;5034000;28;20441;-57
2021/09/12 10:11:13;;;;;;;13.70;13.07;;;22.30;99.90;;;;;;5032687;28;20445;-58
2021/09/12 10:13:41;;;;;;;14.13;13.73;;;22.40;99.90;;;;;;5033219;28;20556;-59
2021/09/12 10:16:10;;;;;;;16.30;15.60;;;22.40;99.90;;;;;;5033079;28;20448;-61
2021/09/12 10:18:39;;;;;;;16.00;15.40;;;22.60;99.90;;;;;;5033046;28;20474;-61
2021/09/12 10:21:26;;;;;;;16.53;15.67;;;22.70;99.90;;;;;;5032458;28;20441;-63
2021/09/12 10:24:04;;;;;;;15.27;14.57;;;22.80;99.90;;;;;;5032687;28;20468;-63
2021/09/12 10:26:37;;;;;;;15.23;14.40;;;23.10;98.00;;;;;;5032610;28;20441;-63
2021/09/12 10:29:05;;;;;;;15.00;14.40;;;23.30;97.90;;;;;;5032677;28;20545;-63
2021/09/12 10:31:34;;;;;;;13.43;12.93;;;23.60;98.00;;;;;;5032524;28;20468;-63
2021/09/12 10:34:06;;;;;;;15.07;14.37;;;23.70;97.30;;;;;;5032482;28;20469;-62
2021/09/12 10:36:33;;;;;;;14.50;13.90;;;23.70;96.80;;;;;;5032528;28;20508;-61
2021/09/12 10:39:26;;;;;;;14.90;14.30;;;23.90;94.30;;;;;;5032494;28;20445;-63
2021/09/12 10:42:17;;;;;;;14.70;14.10;;;24.10;94.10;;;;;;5032303;28;20477;-63
2021/09/12 10:44:44;;;;;;;16.17;15.43;;;24.20;92.50;;;;;;5032462;28;20471;-62
2021/09/12 10:47:13;;;;;;;15.20;14.70;;;24.40;91.70;;;;;;5032302;28;20446;-63
2021/09/12 10:49:40;;;;;;;15.53;15.00;;;24.50;90.00;;;;;;5032390;28;20451;-61
2021/09/12 10:52:09;;;;;;;15.50;14.70;;;24.90;87.40;;;;;;5032149;28;20445;-62
2021/09/12 10:55:06;;;;;;;15.30;14.70;;;25.20;87.70;;;;;;5032317;28;20448;-62
2021/09/12 10:57:37;;;;;;;15.70;15.03;;;25.20;82.20;;;;;;5032187;28;20512;-63
2021/09/12 11:00:05;;;;;;;16.27;15.70;;;24.80;80.30;;;;;;5032231;28;20453;-63
2021/09/12 11:02:33;;;;;;;16.13;15.47;;;24.90;80.10;;;;;;5031743;28;20465;-62
2021/09/12 11:05:00;;;;;;;16.33;15.73;;;25.60;79.40;;;;;;5032232;28;20846;-62
2021/09/12 11:07:26;;;;;;;16.80;16.30;;;25.80;76.70;;;;;;5032139;28;20441;-63
2021/09/12 11:09:53;;;;;;;17.03;16.43;;;25.80;73.10;;;;;;5031952;28;20452;-62
2021/09/12 11:12:29;;;;;;;16.93;16.30;;;26.20;73.10;;;;;;5031680;28;21014;-59
2021/09/12 11:14:57;;;;;;;17.37;16.77;;;26.70;72.40;;;;;;5032043;28;20940;-63
2021/09/12 11:17:23;;;;;;;16.43;15.83;;;27.30;69.40;;;;;;5032329;28;20507;-62
2021/09/12 11:19:54;;;;;;;16.73;15.93;;;27.20;65.90;;;;;;5032455;28;20441;-60
2021/09/12 11:22:21;;;;;;;17.10;16.50;;;27.60;65.90;;;;;;5032616;28;20461;-58
2021/09/12 11:24:47;;;;;;;16.87;16.27;;;27.10;64.60;;;;;;5032179;28;21048;-59
2021/09/12 11:27:14;;;;;;;16.33;15.73;;;26.20;64.40;;;;;;5032395;28;20514;-59
2021/09/12 11:29:41;;;;;;;16.63;16.03;;;26.30;66.60;;;;;;5032311;28;20444;-60
2021/09/12 11:32:13;;;;;;;16.47;15.67;;;26.90;63.70;;;;;;5032223;28;20804;-62
2021/09/12 11:34:41;;;;;;;17.13;16.43;;;27.10;65.00;;;;;;5032442;28;20440;-62
2021/09/12 11:37:10;;;;;;;17.70;17.00;;;26.90;60.60;;;;;;5031821;28;20480;-59
2021/09/12 11:39:39;;;;;;;16.70;16.10;;;26.40;64.60;;;;;;5032223;28;20441;-59
2021/09/12 11:42:08;;;;;;;16.80;16.20;;;26.20;64.10;;;;;;5032105;28;20499;-63
2021/09/12 11:44:36;;;;;;;16.50;15.80;;;25.80;66.60;;;;;;5032171;28;20452;-59
2021/09/12 11:47:07;;;;;;;17.17;16.37;;;25.90;71.40;;;;;;5031843;28;20953;-58
2021/09/12 11:49:35;;;;;;;16.50;15.70;;;26.00;66.10;;;;;;5032239;28;20780;-62
2021/09/12 11:52:02;;;;;;;16.73;16.23;;;26.60;63.60;;;;;;5031681;28;20449;-64
2021/09/12 11:54:31;;;;;;;18.43;17.53;;;30.70;58.20;;;;;;5031962;28;20451;-60
2021/09/12 11:57:00;;;;;;;18.00;17.40;;;33.60;50.00;;;;;;5032129;28;20530;-63
2021/09/12 11:59:29;;;;;;;18.73;17.77;;;36.60;43.70;;;;;;5032028;28;20449;-62
2021/09/12 12:01:58;;;;;;;18.45;17.85;;;38.50;38.40;;;;;;5031931;28;20201;-61
2021/09/12 12:04:25;;;;;;;17.42;16.88;;;41.10;34.20;;;;;;5032024;28;20468;-59
2021/09/12 12:06:56;;;;;;;18.95;18.05;;;42.30;30.90;;;;;;5031969;28;20259;-62
2021/09/12 12:09:29;;;;;;;17.33;16.83;;;43.10;29.40;;;;;;5032098;28;20244;-62
2021/09/12 12:12:06;;;;;;;19.02;18.23;;;40.90;28.80;;;;;;5031611;28;20206;-61
2021/09/12 12:14:34;;;;;;;17.23;16.73;;;40.80;28.90;;;;;;5031783;28;20242;-63
2021/09/12 12:17:04;;;;;;;17.63;17.00;;;38.40;30.00;;;;;;5031805;28;20202;-63
2021/09/12 12:19:34;;;;;;;18.85;17.92;;;37.20;30.50;;;;;;5031912;28;20237;-65
2021/09/12 12:22:06;;;;;;;18.50;17.75;;;36.60;33.20;;;;;;5031545;28;20206;-61
2021/09/12 12:24:37;;;;;;;17.80;17.05;;;40.50;30.90;;;;;;5032210;28;20190;-63
2021/09/12 12:27:07;;;;;;;18.42;17.83;;;43.50;28.30;;;;;;5035055;28;20198;-63
2021/09/12 12:29:36;;;;;;;20.63;19.83;;;42.80;26.80;;;;;;5035585;28;20274;-62
2021/09/12 12:32:04;;;;;;;21.88;21.02;;;43.50;27.00;;;;;;5035169;28;20202;-58
2021/09/12 12:34:40;;;;;;;22.02;21.27;;;45.80;26.50;;;;;;5035361;28;20536;-58